sensor_id;sensor_type;location;lat;lon;timestamp;temperature;humidity
64209;DHT22;50527;52.414;13.226;2023-01-19T00:00:10;-0.80;99.90
64209;DHT22;50527;52.414;13.226;2023-01-19T00:02:36;-0.80;99.90
64209;DHT22;50527;52.414;13.226;2023-01-19T00:05:03;-0.80;99.90
64209;DHT22;50527;52.414;13.226;2023-01-19T00:07:30;-0.90;99.90
64209;DHT22;50527;52.414;13.226;2023-01-19T00:09:55;-0.90;99.90
64209;DHT22;50527;52.414;13.226;2023-01-19T00:12:21;-0.90;99.90
64209;DHT22;50527;52.414;13.226;2023-01-19T00:14:46;-1.00;99.90
64209;DHT22;50527;52.414;13.226;2023-01-19T00:17:12;-1.00;99.90
64209;DHT22;50527;52.414;13.226;2023-01-19T00:19:37;-0.90;99.90
64209;DHT22;50527;52.414;13.226;2023-01-19T00:22:03;-0.90;99.90
64209;DHT22;50527;52.414;13.226;2023-01-19T00:24:30;-0.90;99.90
64209;DHT22;50527;52.414;13.226;2023-01-19T00:26:56;-0.90;99.90
64209;DHT22;50527;52.414;13.226;2023-01-19T00:29:21;-0.90;99.90
64209;DHT22;50527;52.414;13.226;2023-01-19T00:31:48;-0.90;99.90
64209;DHT22;50527;52.414;13.226;2023-01-19T00:34:14;-0.90;99.90
64209;DHT22;50527;52.414;13.226;2023-01-19T00:36:39;-0.90;99.90
64209;DHT22;50527;52.414;13.226;2023-01-19T00:39:05;-0.90;99.90
64209;DHT22;50527;52.414;13.226;2023-01-19T00:41:31;-0.90;99.90
64209;DHT22;50527;52.414;13.226;2023-01-19T00:44:15;-0.90;99.90
64209;DHT22;50527;52.414;13.226;2023-01-19T00:46:40;-0.90;99.90
64209;DHT22;50527;52.414;13.226;2023-01-19T00:49:06;-0.90;99.80
64209;DHT22;50527;52.414;13.226;2023-01-19T00:51:31;-1.00;99.90
64209;DHT22;50527;52.414;13.226;2023-01-19T00:53:57;-0.90;99.90
64209;DHT22;50527;52.414;13.226;2023-01-19T00:56:32;-0.90;99.90
64209;DHT22;50527;52.414;13.226;2023-01-19T00:58:58;-1.00;99.90
64209;DHT22;50527;52.414;13.226;2023-01-19T01:01:24;-0.90;99.80
64209;DHT22;50527;52.414;13.226;2023-01-19T01:03:50;-1.00;99.90
64209;DHT22;50527;52.414;13.226;2023-01-19T01:06:15;-1.00;99.90
64209;DHT22;50527;52.414;13.226;2023-01-19T01:08:41;-1.00;99.90
64209;DHT22;50527;52.414;13.226;2023-01-19T01:11:06;-1.00;99.90
64209;DHT22;50527;52.414;13.226;2023-01-19T01:13:32;-1.00;99.90
64209;DHT22;50527;52.414;13.226;2023-01-19T01:15:57;-1.10;99.90
64209;DHT22;50527;52.414;13.226;2023-01-19T01:18:24;-1.10;99.90
64209;DHT22;50527;52.414;13.226;2023-01-19T01:20:50;-1.10;99.90
64209;DHT22;50527;52.414;13.226;2023-01-19T01:23:15;-1.10;99.90
64209;DHT22;50527;52.414;13.226;2023-01-19T01:25:46;-1.20;99.90
64209;DHT22;50527;52.414;13.226;2023-01-19T01:28:12;-1.10;99.90
64209;DHT22;50527;52.414;13.226;2023-01-19T01:30:38;-1.10;99.90
64209;DHT22;50527;52.414;13.226;2023-01-19T01:33:06;-1.10;99.90
64209;DHT22;50527;52.414;13.226;2023-01-19T01:35:31;-1.10;99.90
64209;DHT22;50527;52.414;13.226;2023-01-19T01:37:58;-1.20;99.90
64209;DHT22;50527;52.414;13.226;2023-01-19T01:40:25;-1.20;99.90
64209;DHT22;50527;52.414;13.226;2023-01-19T01:42:50;-1.20;99.90
64209;DHT22;50527;52.414;13.226;2023-01-19T01:45:34;-1.20;99.80
64209;DHT22;50527;52.414;13.226;2023-01-19T01:50:51;-1.30;99.20
64209;DHT22;50527;52.414;13.226;2023-01-19T01:53:40;-1.30;99.50
64209;DHT22;50527;52.414;13.226;2023-01-19T01:56:09;-1.30;99.40
64209;DHT22;50527;52.414;13.226;2023-01-19T01:58:36;-1.40;98.30
64209;DHT22;50527;52.414;13.226;2023-01-19T02:01:03;-1.40;98.20
64209;DHT22;50527;52.414;13.226;2023-01-19T02:03:47;-1.50;99.00
64209;DHT22;50527;52.414;13.226;2023-01-19T02:06:13;-1.50;99.50
64209;DHT22;50527;52.414;13.226;2023-01-19T02:08:53;-1.50;99.90
64209;DHT22;50527;52.414;13.226;2023-01-19T02:11:40;-1.50;99.60
64209;DHT22;50527;52.414;13.226;2023-01-19T02:14:24;-1.50;99.50
64209;DHT22;50527;52.414;13.226;2023-01-19T02:16:50;-1.40;99.90
64209;DHT22;50527;52.414;13.226;2023-01-19T02:19:28;-1.40;99.90
64209;DHT22;50527;52.414;13.226;2023-01-19T02:22:23;-1.50;98.80
64209;DHT22;50527;52.414;13.226;2023-01-19T02:24:46;-1.50;99.20
64209;DHT22;50527;52.414;13.226;2023-01-19T02:27:14;-1.50;99.10
64209;DHT22;50527;52.414;13.226;2023-01-19T02:29:40;-1.60;99.40
64209;DHT22;50527;52.414;13.226;2023-01-19T02:32:05;-1.60;99.90
64209;DHT22;50527;52.414;13.226;2023-01-19T02:34:31;-1.60;99.90
64209;DHT22;50527;52.414;13.226;2023-01-19T02:37:02;-1.60;99.90
64209;DHT22;50527;52.414;13.226;2023-01-19T02:39:35;-1.60;99.10
64209;DHT22;50527;52.414;13.226;2023-01-19T02:42:06;-1.60;98.90
64209;DHT22;50527;52.414;13.226;2023-01-19T02:44:33;-1.70;98.20
64209;DHT22;50527;52.414;13.226;2023-01-19T02:47:00;-1.70;99.70
64209;DHT22;50527;52.414;13.226;2023-01-19T02:49:29;-1.80;99.90
64209;DHT22;50527;52.414;13.226;2023-01-19T02:51:55;-1.80;99.90
64209;DHT22;50527;52.414;13.226;2023-01-19T02:54:40;-1.70;99.90
64209;DHT22;50527;52.414;13.226;2023-01-19T03:00:19;-1.80;99.90
64209;DHT22;50527;52.414;13.226;2023-01-19T03:03:10;-1.80;99.90
64209;DHT22;50527;52.414;13.226;2023-01-19T03:05:41;-1.80;99.90
64209;DHT22;50527;52.414;13.226;2023-01-19T03:13:48;-1.60;99.90
64209;DHT22;50527;52.414;13.226;2023-01-19T03:18:45;-1.60;99.90
64209;DHT22;50527;52.414;13.226;2023-01-19T03:21:12;-1.80;99.90
64209;DHT22;50527;52.414;13.226;2023-01-19T03:23:41;-1.80;99.90
64209;DHT22;50527;52.414;13.226;2023-01-19T03:26:10;-1.80;99.90
64209;DHT22;50527;52.414;13.226;2023-01-19T03:28:39;-1.70;99.90
64209;DHT22;50527;52.414;13.226;2023-01-19T03:31:15;-1.70;99.90
64209;DHT22;50527;52.414;13.226;2023-01-19T03:33:44;-1.70;99.90
64209;DHT22;50527;52.414;13.226;2023-01-19T03:36:14;-1.70;99.90
64209;DHT22;50527;52.414;13.226;2023-01-19T03:38:42;-1.70;99.90
64209;DHT22;50527;52.414;13.226;2023-01-19T03:41:12;-1.80;99.90
64209;DHT22;50527;52.414;13.226;2023-01-19T03:43:40;-1.80;99.90
64209;DHT22;50527;52.414;13.226;2023-01-19T03:46:07;-1.80;99.90
64209;DHT22;50527;52.414;13.226;2023-01-19T03:48:35;-1.90;99.90
64209;DHT22;50527;52.414;13.226;2023-01-19T03:51:03;-1.90;99.90
64209;DHT22;50527;52.414;13.226;2023-01-19T03:53:30;-1.80;99.90
64209;DHT22;50527;52.414;13.226;2023-01-19T03:55:55;-1.90;99.90
64209;DHT22;50527;52.414;13.226;2023-01-19T03:58:21;-2.00;99.90
64209;DHT22;50527;52.414;13.226;2023-01-19T04:00:47;-1.90;99.90
64209;DHT22;50527;52.414;13.226;2023-01-19T04:03:13;-1.90;99.90
64209;DHT22;50527;52.414;13.226;2023-01-19T04:05:40;-1.90;99.90
64209;DHT22;50527;52.414;13.226;2023-01-19T04:08:06;-1.80;99.90
64209;DHT22;50527;52.414;13.226;2023-01-19T04:10:31;-1.90;99.90
64209;DHT22;50527;52.414;13.226;2023-01-19T04:12:58;-1.90;99.90
64209;DHT22;50527;52.414;13.226;2023-01-19T04:15:24;-2.00;99.90
64209;DHT22;50527;52.414;13.226;2023-01-19T04:17:50;-2.00;99.90
64209;DHT22;50527;52.414;13.226;2023-01-19T04:20:15;-2.10;99.90
64209;DHT22;50527;52.414;13.226;2023-01-19T04:22:41;-2.00;99.90
64209;DHT22;50527;52.414;13.226;2023-01-19T04:25:07;-2.00;99.90
64209;DHT22;50527;52.414;13.226;2023-01-19T04:27:34;-2.10;99.90
64209;DHT22;50527;52.414;13.226;2023-01-19T04:29:59;-2.10;99.90
64209;DHT22;50527;52.414;13.226;2023-01-19T04:32:25;-2.10;99.90
64209;DHT22;50527;52.414;13.226;2023-01-19T04:34:50;-2.20;99.90
64209;DHT22;50527;52.414;13.226;2023-01-19T04:37:16;-2.20;99.90
64209;DHT22;50527;52.414;13.226;2023-01-19T04:39:42;-2.20;99.90
64209;DHT22;50527;52.414;13.226;2023-01-19T04:42:07;-2.10;99.90
64209;DHT22;50527;52.414;13.226;2023-01-19T04:44:33;-2.00;99.90
64209;DHT22;50527;52.414;13.226;2023-01-19T04:46:58;-2.00;99.90
64209;DHT22;50527;52.414;13.226;2023-01-19T04:49:24;-2.00;99.90
64209;DHT22;50527;52.414;13.226;2023-01-19T04:51:52;-1.90;99.90
64209;DHT22;50527;52.414;13.226;2023-01-19T04:54:18;-2.00;99.90
64209;DHT22;50527;52.414;13.226;2023-01-19T04:56:43;-2.00;99.90
64209;DHT22;50527;52.414;13.226;2023-01-19T04:59:09;-2.10;99.90
64209;DHT22;50527;52.414;13.226;2023-01-19T05:01:34;-2.00;99.90
64209;DHT22;50527;52.414;13.226;2023-01-19T05:04:01;-2.00;99.90
64209;DHT22;50527;52.414;13.226;2023-01-19T05:06:28;-2.00;99.90
64209;DHT22;50527;52.414;13.226;2023-01-19T05:08:53;-2.00;99.90
64209;DHT22;50527;52.414;13.226;2023-01-19T05:11:19;-2.00;99.90
64209;DHT22;50527;52.414;13.226;2023-01-19T05:13:44;-1.90;99.90
64209;DHT22;50527;52.414;13.226;2023-01-19T05:16:10;-2.00;99.90
64209;DHT22;50527;52.414;13.226;2023-01-19T05:18:36;-2.00;99.90
64209;DHT22;50527;52.414;13.226;2023-01-19T05:21:05;-2.00;99.90
64209;DHT22;50527;52.414;13.226;2023-01-19T05:23:31;-2.00;99.90
64209;DHT22;50527;52.414;13.226;2023-01-19T05:25:58;-2.10;99.90
64209;DHT22;50527;52.414;13.226;2023-01-19T05:28:28;-2.10;99.90
64209;DHT22;50527;52.414;13.226;2023-01-19T05:30:53;-2.10;99.90
64209;DHT22;50527;52.414;13.226;2023-01-19T05:33:23;-2.20;99.90
64209;DHT22;50527;52.414;13.226;2023-01-19T05:35:53;-2.10;99.90
64209;DHT22;50527;52.414;13.226;2023-01-19T05:38:19;-2.10;99.90
64209;DHT22;50527;52.414;13.226;2023-01-19T05:40:45;-2.10;99.90
64209;DHT22;50527;52.414;13.226;2023-01-19T05:43:12;-2.20;99.90
64209;DHT22;50527;52.414;13.226;2023-01-19T05:45:37;-2.10;99.90
64209;DHT22;50527;52.414;13.226;2023-01-19T05:48:07;-2.00;99.90
64209;DHT22;50527;52.414;13.226;2023-01-19T05:50:33;-2.00;99.90
64209;DHT22;50527;52.414;13.226;2023-01-19T05:52:59;-2.00;99.90
64209;DHT22;50527;52.414;13.226;2023-01-19T05:55:26;-2.10;99.90
64209;DHT22;50527;52.414;13.226;2023-01-19T05:57:52;-2.10;99.90
64209;DHT22;50527;52.414;13.226;2023-01-19T06:00:18;-2.00;99.90
64209;DHT22;50527;52.414;13.226;2023-01-19T06:02:44;-2.10;99.90
64209;DHT22;50527;52.414;13.226;2023-01-19T06:05:12;-2.10;99.90
64209;DHT22;50527;52.414;13.226;2023-01-19T06:07:37;-2.10;99.90
64209;DHT22;50527;52.414;13.226;2023-01-19T06:10:03;-2.10;99.90
64209;DHT22;50527;52.414;13.226;2023-01-19T06:12:29;-2.10;99.90
64209;DHT22;50527;52.414;13.226;2023-01-19T06:14:54;-2.10;99.90
64209;DHT22;50527;52.414;13.226;2023-01-19T06:17:20;-2.20;99.90
64209;DHT22;50527;52.414;13.226;2023-01-19T06:19:45;-2.10;99.90
64209;DHT22;50527;52.414;13.226;2023-01-19T06:22:11;-2.10;99.90
64209;DHT22;50527;52.414;13.226;2023-01-19T06:24:36;-2.10;99.90
64209;DHT22;50527;52.414;13.226;2023-01-19T06:27:02;-2.10;99.90
64209;DHT22;50527;52.414;13.226;2023-01-19T06:29:27;-2.00;99.90
64209;DHT22;50527;52.414;13.226;2023-01-19T06:31:53;-2.00;99.90
64209;DHT22;50527;52.414;13.226;2023-01-19T06:34:19;-2.00;99.50
64209;DHT22;50527;52.414;13.226;2023-01-19T06:36:45;-2.10;99.70
64209;DHT22;50527;52.414;13.226;2023-01-19T06:39:11;-2.10;99.70
64209;DHT22;50527;52.414;13.226;2023-01-19T06:41:37;-2.10;99.10
64209;DHT22;50527;52.414;13.226;2023-01-19T06:44:03;-2.20;99.00
64209;DHT22;50527;52.414;13.226;2023-01-19T06:46:29;-2.20;99.10
64209;DHT22;50527;52.414;13.226;2023-01-19T06:48:55;-2.20;99.60
64209;DHT22;50527;52.414;13.226;2023-01-19T06:51:21;-2.20;99.30
64209;DHT22;50527;52.414;13.226;2023-01-19T06:53:47;-2.20;99.70
64209;DHT22;50527;52.414;13.226;2023-01-19T06:56:13;-2.20;99.10
64209;DHT22;50527;52.414;13.226;2023-01-19T06:58:38;-2.20;99.70
64209;DHT22;50527;52.414;13.226;2023-01-19T07:01:05;-2.20;99.50
64209;DHT22;50527;52.414;13.226;2023-01-19T07:03:31;-2.20;98.90
64209;DHT22;50527;52.414;13.226;2023-01-19T07:05:57;-2.30;98.40
64209;DHT22;50527;52.414;13.226;2023-01-19T07:08:27;-2.30;99.40
64209;DHT22;50527;52.414;13.226;2023-01-19T07:11:01;-2.30;99.30
64209;DHT22;50527;52.414;13.226;2023-01-19T07:13:29;-2.30;99.50
64209;DHT22;50527;52.414;13.226;2023-01-19T07:15:55;-2.20;99.50
64209;DHT22;50527;52.414;13.226;2023-01-19T07:18:20;-2.20;98.60
64209;DHT22;50527;52.414;13.226;2023-01-19T07:20:46;-2.20;98.70
64209;DHT22;50527;52.414;13.226;2023-01-19T07:23:14;-2.20;98.70
64209;DHT22;50527;52.414;13.226;2023-01-19T07:25:40;-2.20;98.80
64209;DHT22;50527;52.414;13.226;2023-01-19T07:28:05;-2.20;97.90
64209;DHT22;50527;52.414;13.226;2023-01-19T07:30:31;-2.20;98.40
64209;DHT22;50527;52.414;13.226;2023-01-19T07:32:56;-2.30;98.50
64209;DHT22;50527;52.414;13.226;2023-01-19T07:35:23;-2.20;99.10
64209;DHT22;50527;52.414;13.226;2023-01-19T07:37:49;-2.20;98.90
64209;DHT22;50527;52.414;13.226;2023-01-19T07:40:14;-2.20;98.50
64209;DHT22;50527;52.414;13.226;2023-01-19T07:42:47;-2.20;98.00
64209;DHT22;50527;52.414;13.226;2023-01-19T07:45:15;-2.10;99.10
64209;DHT22;50527;52.414;13.226;2023-01-19T07:47:44;-2.10;98.60
64209;DHT22;50527;52.414;13.226;2023-01-19T07:50:11;-2.00;98.80
64209;DHT22;50527;52.414;13.226;2023-01-19T07:52:38;-2.00;98.60
64209;DHT22;50527;52.414;13.226;2023-01-19T07:55:03;-1.90;98.50
64209;DHT22;50527;52.414;13.226;2023-01-19T07:57:29;-1.90;97.90
64209;DHT22;50527;52.414;13.226;2023-01-19T07:59:55;-1.90;98.00
64209;DHT22;50527;52.414;13.226;2023-01-19T08:02:21;-1.90;97.80
64209;DHT22;50527;52.414;13.226;2023-01-19T08:04:47;-1.90;97.70
64209;DHT22;50527;52.414;13.226;2023-01-19T08:07:12;-1.80;97.50
64209;DHT22;50527;52.414;13.226;2023-01-19T08:09:38;-1.80;97.60
64209;DHT22;50527;52.414;13.226;2023-01-19T08:12:03;-1.60;98.40
64209;DHT22;50527;52.414;13.226;2023-01-19T08:14:29;-1.30;97.60
64209;DHT22;50527;52.414;13.226;2023-01-19T08:16:58;-1.00;95.80
64209;DHT22;50527;52.414;13.226;2023-01-19T08:19:24;-1.10;94.60
64209;DHT22;50527;52.414;13.226;2023-01-19T08:21:49;-1.20;94.40
64209;DHT22;50527;52.414;13.226;2023-01-19T08:24:20;-1.10;95.60
64209;DHT22;50527;52.414;13.226;2023-01-19T08:26:47;-0.70;94.50
64209;DHT22;50527;52.414;13.226;2023-01-19T08:29:12;-0.80;94.30
64209;DHT22;50527;52.414;13.226;2023-01-19T08:31:38;-0.90;93.50
64209;DHT22;50527;52.414;13.226;2023-01-19T08:34:04;-1.00;94.50
64209;DHT22;50527;52.414;13.226;2023-01-19T08:36:30;-1.00;94.50
64209;DHT22;50527;52.414;13.226;2023-01-19T08:38:56;-0.90;94.00
64209;DHT22;50527;52.414;13.226;2023-01-19T08:41:21;-0.80;93.90
64209;DHT22;50527;52.414;13.226;2023-01-19T08:43:47;-0.70;94.20
64209;DHT22;50527;52.414;13.226;2023-01-19T08:46:13;-0.10;92.80
64209;DHT22;50527;52.414;13.226;2023-01-19T08:48:45;-0.30;92.10
64209;DHT22;50527;52.414;13.226;2023-01-19T08:51:12;-0.40;92.40
64209;DHT22;50527;52.414;13.226;2023-01-19T08:53:39;-0.50;92.50
64209;DHT22;50527;52.414;13.226;2023-01-19T08:56:06;-0.60;92.50
64209;DHT22;50527;52.414;13.226;2023-01-19T08:58:37;-0.60;93.20
64209;DHT22;50527;52.414;13.226;2023-01-19T09:01:02;-0.60;92.80
64209;DHT22;50527;52.414;13.226;2023-01-19T09:03:28;-0.70;92.70
64209;DHT22;50527;52.414;13.226;2023-01-19T09:05:54;-0.40;93.40
64209;DHT22;50527;52.414;13.226;2023-01-19T09:08:19;0.60;92.00
64209;DHT22;50527;52.414;13.226;2023-01-19T09:10:47;0.90;88.00
64209;DHT22;50527;52.414;13.226;2023-01-19T09:13:13;0.60;88.40
64209;DHT22;50527;52.414;13.226;2023-01-19T09:15:40;0.30;89.20
64209;DHT22;50527;52.414;13.226;2023-01-19T09:18:13;0.20;90.60
64209;DHT22;50527;52.414;13.226;2023-01-19T09:20:40;0.50;90.90
64209;DHT22;50527;52.414;13.226;2023-01-19T09:23:11;0.40;88.50
64209;DHT22;50527;52.414;13.226;2023-01-19T09:25:37;0.50;89.90
64209;DHT22;50527;52.414;13.226;2023-01-19T09:28:04;0.80;87.50
64209;DHT22;50527;52.414;13.226;2023-01-19T09:30:29;0.70;88.00
64209;DHT22;50527;52.414;13.226;2023-01-19T09:33:01;0.60;89.00
64209;DHT22;50527;52.414;13.226;2023-01-19T09:35:26;0.70;88.40
64209;DHT22;50527;52.414;13.226;2023-01-19T09:37:52;0.90;89.90
64209;DHT22;50527;52.414;13.226;2023-01-19T09:40:17;1.40;88.60
64209;DHT22;50527;52.414;13.226;2023-01-19T09:42:49;2.20;83.70
64209;DHT22;50527;52.414;13.226;2023-01-19T09:45:22;2.10;80.80
64209;DHT22;50527;52.414;13.226;2023-01-19T09:47:51;2.10;81.80
64209;DHT22;50527;52.414;13.226;2023-01-19T09:50:24;1.70;80.60
64209;DHT22;50527;52.414;13.226;2023-01-19T09:52:55;1.60;81.80
64209;DHT22;50527;52.414;13.226;2023-01-19T09:55:25;1.80;82.90
64209;DHT22;50527;52.414;13.226;2023-01-19T09:57:51;2.00;80.50
64209;DHT22;50527;52.414;13.226;2023-01-19T10:00:18;2.10;81.00
64209;DHT22;50527;52.414;13.226;2023-01-19T10:02:48;2.10;80.70
64209;DHT22;50527;52.414;13.226;2023-01-19T10:05:47;1.80;80.80
64209;DHT22;50527;52.414;13.226;2023-01-19T10:08:39;1.80;81.60
64209;DHT22;50527;52.414;13.226;2023-01-19T10:11:35;1.60;82.30
64209;DHT22;50527;52.414;13.226;2023-01-19T10:14:05;1.60;85.90
64209;DHT22;50527;52.414;13.226;2023-01-19T10:16:38;1.50;83.60
64209;DHT22;50527;52.414;13.226;2023-01-19T10:19:22;1.30;84.20
64209;DHT22;50527;52.414;13.226;2023-01-19T10:21:50;1.20;85.30
64209;DHT22;50527;52.414;13.226;2023-01-19T10:24:22;1.20;86.20
64209;DHT22;50527;52.414;13.226;2023-01-19T10:26:52;1.20;87.00
64209;DHT22;50527;52.414;13.226;2023-01-19T10:29:25;1.10;85.50
64209;DHT22;50527;52.414;13.226;2023-01-19T10:32:02;1.10;88.00
64209;DHT22;50527;52.414;13.226;2023-01-19T10:34:28;1.10;87.60
64209;DHT22;50527;52.414;13.226;2023-01-19T10:37:03;1.20;88.40
64209;DHT22;50527;52.414;13.226;2023-01-19T10:39:29;1.10;89.00
64209;DHT22;50527;52.414;13.226;2023-01-19T10:41:56;1.20;90.40
64209;DHT22;50527;52.414;13.226;2023-01-19T10:44:27;1.20;90.00
64209;DHT22;50527;52.414;13.226;2023-01-19T10:46:55;1.30;88.60
64209;DHT22;50527;52.414;13.226;2023-01-19T10:49:40;1.40;88.50
64209;DHT22;50527;52.414;13.226;2023-01-19T10:52:25;1.50;88.70
64209;DHT22;50527;52.414;13.226;2023-01-19T10:54:53;1.50;88.30
64209;DHT22;50527;52.414;13.226;2023-01-19T10:57:25;1.60;89.40
64209;DHT22;50527;52.414;13.226;2023-01-19T10:59:52;1.60;88.50
64209;DHT22;50527;52.414;13.226;2023-01-19T11:02:18;1.60;88.40
64209;DHT22;50527;52.414;13.226;2023-01-19T11:04:46;1.80;89.10
64209;DHT22;50527;52.414;13.226;2023-01-19T11:07:29;1.80;87.30
64209;DHT22;50527;52.414;13.226;2023-01-19T11:13:00;2.20;85.40
64209;DHT22;50527;52.414;13.226;2023-01-19T11:18:01;2.70;82.60
64209;DHT22;50527;52.414;13.226;2023-01-19T11:20:33;2.90;82.50
64209;DHT22;50527;52.414;13.226;2023-01-19T11:23:16;2.90;81.60
64209;DHT22;50527;52.414;13.226;2023-01-19T11:25:48;3.00;80.50
64209;DHT22;50527;52.414;13.226;2023-01-19T11:28:29;3.10;81.20
64209;DHT22;50527;52.414;13.226;2023-01-19T11:31:18;3.30;81.10
64209;DHT22;50527;52.414;13.226;2023-01-19T11:33:51;3.50;80.20
64209;DHT22;50527;52.414;13.226;2023-01-19T11:38:48;3.70;78.10
64209;DHT22;50527;52.414;13.226;2023-01-19T11:43:49;3.90;77.60
64209;DHT22;50527;52.414;13.226;2023-01-19T11:46:16;3.80;77.10
64209;DHT22;50527;52.414;13.226;2023-01-19T11:48:53;3.90;77.60
64209;DHT22;50527;52.414;13.226;2023-01-19T11:51:24;3.90;76.00
64209;DHT22;50527;52.414;13.226;2023-01-19T11:53:51;3.80;76.60
64209;DHT22;50527;52.414;13.226;2023-01-19T11:56:21;3.60;76.50
64209;DHT22;50527;52.414;13.226;2023-01-19T11:58:48;3.50;77.80
64209;DHT22;50527;52.414;13.226;2023-01-19T12:01:33;3.60;77.50
64209;DHT22;50527;52.414;13.226;2023-01-19T12:04:07;3.40;78.10
64209;DHT22;50527;52.414;13.226;2023-01-19T12:06:38;3.40;78.60
64209;DHT22;50527;52.414;13.226;2023-01-19T12:09:12;3.30;77.90
64209;DHT22;50527;52.414;13.226;2023-01-19T12:11:43;3.30;79.50
64209;DHT22;50527;52.414;13.226;2023-01-19T12:14:21;3.20;79.70
64209;DHT22;50527;52.414;13.226;2023-01-19T12:16:50;3.20;79.00
64209;DHT22;50527;52.414;13.226;2023-01-19T12:19:19;3.10;79.80
64209;DHT22;50527;52.414;13.226;2023-01-19T12:21:47;3.10;79.70
64209;DHT22;50527;52.414;13.226;2023-01-19T12:24:39;3.10;80.30
64209;DHT22;50527;52.414;13.226;2023-01-19T12:27:14;3.10;80.80
64209;DHT22;50527;52.414;13.226;2023-01-19T12:29:41;3.10;80.20
64209;DHT22;50527;52.414;13.226;2023-01-19T12:34:44;3.10;79.10
64209;DHT22;50527;52.414;13.226;2023-01-19T12:37:27;3.10;80.60
64209;DHT22;50527;52.414;13.226;2023-01-19T12:39:56;3.00;80.80
64209;DHT22;50527;52.414;13.226;2023-01-19T12:42:23;3.10;80.20
64209;DHT22;50527;52.414;13.226;2023-01-19T12:45:03;3.10;80.40
64209;DHT22;50527;52.414;13.226;2023-01-19T12:47:29;3.00;79.70
64209;DHT22;50527;52.414;13.226;2023-01-19T12:49:57;3.10;80.40
64209;DHT22;50527;52.414;13.226;2023-01-19T12:52:33;3.20;80.20
64209;DHT22;50527;52.414;13.226;2023-01-19T12:58:01;3.20;80.40
64209;DHT22;50527;52.414;13.226;2023-01-19T13:00:38;3.30;79.40
64209;DHT22;50527;52.414;13.226;2023-01-19T13:10:52;3.20;79.90
64209;DHT22;50527;52.414;13.226;2023-01-19T13:13:24;3.30;79.60
64209;DHT22;50527;52.414;13.226;2023-01-19T13:15:51;3.20;79.00
64209;DHT22;50527;52.414;13.226;2023-01-19T13:18:23;3.20;80.00
64209;DHT22;50527;52.414;13.226;2023-01-19T13:20:59;3.20;80.20
64209;DHT22;50527;52.414;13.226;2023-01-19T13:26:28;3.20;79.00
64209;DHT22;50527;52.414;13.226;2023-01-19T13:31:33;3.20;80.40
64209;DHT22;50527;52.414;13.226;2023-01-19T13:34:00;3.30;80.20
64209;DHT22;50527;52.414;13.226;2023-01-19T13:36:34;3.20;79.60
64209;DHT22;50527;52.414;13.226;2023-01-19T13:39:03;3.20;80.20
64209;DHT22;50527;52.414;13.226;2023-01-19T13:41:34;3.10;80.60
64209;DHT22;50527;52.414;13.226;2023-01-19T13:44:02;3.10;80.70
64209;DHT22;50527;52.414;13.226;2023-01-19T13:46:30;3.20;81.30
64209;DHT22;50527;52.414;13.226;2023-01-19T13:49:04;3.10;81.10
64209;DHT22;50527;52.414;13.226;2023-01-19T13:51:36;3.00;81.80
64209;DHT22;50527;52.414;13.226;2023-01-19T13:54:02;3.00;81.10
64209;DHT22;50527;52.414;13.226;2023-01-19T13:56:28;3.00;82.20
64209;DHT22;50527;52.414;13.226;2023-01-19T13:59:06;3.00;81.60
64209;DHT22;50527;52.414;13.226;2023-01-19T14:01:36;2.90;82.10
64209;DHT22;50527;52.414;13.226;2023-01-19T14:04:02;2.90;82.50
64209;DHT22;50527;52.414;13.226;2023-01-19T14:06:37;2.80;83.10
64209;DHT22;50527;52.414;13.226;2023-01-19T14:09:05;2.70;84.10
64209;DHT22;50527;52.414;13.226;2023-01-19T14:11:31;2.60;86.00
64209;DHT22;50527;52.414;13.226;2023-01-19T14:13:56;2.60;85.50
64209;DHT22;50527;52.414;13.226;2023-01-19T14:16:22;2.40;86.50
64209;DHT22;50527;52.414;13.226;2023-01-19T14:18:58;2.40;87.20
64209;DHT22;50527;52.414;13.226;2023-01-19T14:21:24;2.30;88.00
64209;DHT22;50527;52.414;13.226;2023-01-19T14:24:05;2.30;90.00
64209;DHT22;50527;52.414;13.226;2023-01-19T14:29:24;2.30;88.90
64209;DHT22;50527;52.414;13.226;2023-01-19T14:34:39;2.30;89.70
64209;DHT22;50527;52.414;13.226;2023-01-19T14:37:24;2.30;89.80
64209;DHT22;50527;52.414;13.226;2023-01-19T14:40:18;2.30;89.70
64209;DHT22;50527;52.414;13.226;2023-01-19T14:42:52;2.30;90.20
64209;DHT22;50527;52.414;13.226;2023-01-19T14:45:42;2.30;89.70
64209;DHT22;50527;52.414;13.226;2023-01-19T14:48:16;2.30;90.00
64209;DHT22;50527;52.414;13.226;2023-01-19T14:51:02;2.30;90.10
64209;DHT22;50527;52.414;13.226;2023-01-19T14:53:36;2.20;90.20
64209;DHT22;50527;52.414;13.226;2023-01-19T14:56:04;2.30;90.20
64209;DHT22;50527;52.414;13.226;2023-01-19T14:58:32;2.20;90.20
64209;DHT22;50527;52.414;13.226;2023-01-19T15:00:58;2.20;90.50
64209;DHT22;50527;52.414;13.226;2023-01-19T15:03:25;2.20;90.70
64209;DHT22;50527;52.414;13.226;2023-01-19T15:05:51;2.20;91.10
64209;DHT22;50527;52.414;13.226;2023-01-19T15:08:32;2.10;91.50
64209;DHT22;50527;52.414;13.226;2023-01-19T15:11:20;2.10;91.20
64209;DHT22;50527;52.414;13.226;2023-01-19T15:13:47;2.10;91.00
64209;DHT22;50527;52.414;13.226;2023-01-19T15:16:13;2.10;91.60
64209;DHT22;50527;52.414;13.226;2023-01-19T15:18:38;2.00;91.30
64209;DHT22;50527;52.414;13.226;2023-01-19T15:21:04;2.00;91.60
64209;DHT22;50527;52.414;13.226;2023-01-19T15:23:31;1.80;91.80
64209;DHT22;50527;52.414;13.226;2023-01-19T15:26:02;1.80;92.20
64209;DHT22;50527;52.414;13.226;2023-01-19T15:28:29;1.90;92.50
64209;DHT22;50527;52.414;13.226;2023-01-19T15:30:55;1.90;92.50
64209;DHT22;50527;52.414;13.226;2023-01-19T15:33:24;1.90;92.40
64209;DHT22;50527;52.414;13.226;2023-01-19T15:35:51;1.90;92.00
64209;DHT22;50527;52.414;13.226;2023-01-19T15:38:16;1.90;92.50
64209;DHT22;50527;52.414;13.226;2023-01-19T15:40:42;1.90;92.50
64209;DHT22;50527;52.414;13.226;2023-01-19T15:43:11;2.00;92.00
64209;DHT22;50527;52.414;13.226;2023-01-19T15:45:47;1.90;92.50
64209;DHT22;50527;52.414;13.226;2023-01-19T15:48:12;1.90;92.70
64209;DHT22;50527;52.414;13.226;2023-01-19T15:50:43;1.90;93.10
64209;DHT22;50527;52.414;13.226;2023-01-19T15:53:13;2.00;92.30
64209;DHT22;50527;52.414;13.226;2023-01-19T15:55:39;1.90;91.90
64209;DHT22;50527;52.414;13.226;2023-01-19T15:58:05;2.00;93.20
64209;DHT22;50527;52.414;13.226;2023-01-19T16:00:32;2.00;92.70
64209;DHT22;50527;52.414;13.226;2023-01-19T16:02:58;1.90;92.30
64209;DHT22;50527;52.414;13.226;2023-01-19T16:05:23;1.90;92.30
64209;DHT22;50527;52.414;13.226;2023-01-19T16:07:49;1.90;92.60
64209;DHT22;50527;52.414;13.226;2023-01-19T16:10:15;1.90;93.00
64209;DHT22;50527;52.414;13.226;2023-01-19T16:12:43;1.90;93.40
64209;DHT22;50527;52.414;13.226;2023-01-19T16:15:08;1.90;93.60
64209;DHT22;50527;52.414;13.226;2023-01-19T16:17:34;1.90;93.10
64209;DHT22;50527;52.414;13.226;2023-01-19T16:20:01;2.00;92.60
64209;DHT22;50527;52.414;13.226;2023-01-19T16:22:27;2.00;92.50